createdAt,value
2019-06-07T00:02:16.445Z,5.20
2019-06-07T00:04:45.237Z,4.33
2019-06-07T00:07:16.957Z,4.80
2019-06-07T00:09:45.270Z,4.00
2019-06-07T00:12:16.795Z,4.47
2019-06-07T00:14:45.276Z,3.97
2019-06-07T00:17:17.184Z,5.10
2019-06-07T00:19:45.260Z,4.03
2019-06-07T00:22:29.138Z,4.47
2019-06-07T00:24:45.245Z,4.37
2019-06-07T00:27:15.125Z,4.57
2019-06-07T00:29:44.383Z,5.47
2019-06-07T00:32:14.994Z,6.03
2019-06-07T00:34:44.367Z,5.10
2019-06-07T00:37:14.240Z,6.07
2019-06-07T00:39:43.879Z,5.70
2019-06-07T00:42:15.036Z,6.73
2019-06-07T00:44:43.867Z,6.23
2019-06-07T00:47:13.073Z,6.53
2019-06-07T00:49:42.328Z,6.03
2019-06-07T00:53:08.195Z,5.57
2019-06-07T00:54:42.422Z,5.90
2019-06-07T00:57:12.429Z,6.10
2019-06-07T00:59:42.338Z,6.23
2019-06-07T01:02:14.619Z,5.90
2019-06-07T01:04:42.389Z,5.70
2019-06-07T01:07:12.895Z,6.37
2019-06-07T01:09:42.471Z,6.40
2019-06-07T01:12:11.698Z,6.50
2019-06-07T01:14:40.908Z,5.77
2019-06-07T01:17:39.179Z,5.80
2019-06-07T01:19:57.275Z,6.20
2019-06-07T01:22:29.082Z,6.87
2019-06-07T01:24:57.156Z,6.93
2019-06-07T01:27:26.296Z,6.87
2019-06-07T01:29:55.447Z,6.73
2019-06-07T01:32:27.094Z,7.33
2019-06-07T01:34:55.513Z,6.93
2019-06-07T01:37:27.823Z,6.83
2019-06-07T01:39:55.591Z,7.03
2019-06-07T01:42:28.885Z,7.97
2019-06-07T01:44:55.695Z,7.07
2019-06-07T01:47:28.540Z,7.40
2019-06-07T01:49:55.691Z,7.10
2019-06-07T01:52:26.585Z,7.80
2019-06-07T01:54:58.532Z,7.03
2019-06-07T01:57:40.730Z,6.57
2019-06-07T01:59:57.343Z,7.73
2019-06-07T02:02:29.905Z,7.37
2019-06-07T02:04:57.351Z,7.77
2019-06-07T02:07:30.357Z,7.33
2019-06-07T02:09:57.342Z,8.37
2019-06-07T02:12:37.570Z,7.93
2019-06-07T02:14:57.295Z,6.63
2019-06-07T02:17:28.447Z,6.80
2019-06-07T02:19:57.279Z,7.07
2019-06-07T02:22:29.447Z,7.00
2019-06-07T02:25:34.518Z,6.63
2019-06-07T02:27:30.577Z,7.80
2019-06-07T02:29:59.002Z,7.83
2019-06-07T02:32:32.015Z,7.70
2019-06-07T02:34:58.902Z,8.37
2019-06-07T02:37:32.357Z,8.50
2019-06-07T02:39:58.882Z,6.87
2019-06-07T02:42:34.603Z,7.53
2019-06-07T02:44:58.889Z,7.60
2019-06-07T02:47:31.247Z,8.60
2019-06-07T02:49:58.963Z,7.60
2019-06-07T02:52:31.606Z,7.93
2019-06-07T02:54:58.948Z,7.77
2019-06-07T02:57:29.510Z,6.93
2019-06-07T03:00:16.499Z,6.87
2019-06-07T03:02:34.771Z,6.90
2019-06-07T03:05:00.851Z,7.20
2019-06-07T03:07:36.186Z,7.17
2019-06-07T03:10:04.571Z,7.40
2019-06-07T03:12:35.570Z,7.40
2019-06-07T03:15:05.323Z,8.13
2019-06-07T03:17:56.672Z,7.60
2019-06-07T03:20:27.597Z,7.80
2019-06-07T03:22:59.952Z,7.60
2019-06-07T03:25:37.283Z,7.10
2019-06-07T03:28:07.435Z,7.43
2019-06-07T03:30:48.040Z,6.60
2019-06-07T03:33:07.369Z,7.80
2019-06-07T03:35:37.429Z,7.97
2019-06-07T03:38:06.810Z,7.30
2019-06-07T03:40:39.616Z,7.70
2019-06-07T03:43:06.691Z,8.17
2019-06-07T03:45:40.101Z,8.10
2019-06-07T03:48:06.634Z,8.17
2019-06-07T03:50:38.805Z,7.80
2019-06-07T03:53:06.641Z,8.20
2019-06-07T03:55:39.089Z,7.97
2019-06-07T04:00:42.721Z,8.00
2019-06-07T04:03:08.224Z,8.60
2019-06-07T04:05:41.205Z,8.50
2019-06-07T04:08:08.203Z,7.93
2019-06-07T04:10:53.409Z,7.97
2019-06-07T04:13:08.917Z,7.77
2019-06-07T04:15:41.237Z,7.87
2019-06-07T04:18:08.965Z,7.27
2019-06-07T04:20:39.100Z,7.83
2019-06-07T04:23:27.400Z,7.50
2019-06-07T04:25:42.501Z,9.07
2019-06-07T04:28:10.706Z,7.23
2019-06-07T04:30:44.159Z,7.07
2019-06-07T04:33:14.175Z,6.70
2019-06-07T04:35:45.268Z,7.50
2019-06-07T04:38:15.770Z,6.70
2019-06-07T04:40:45.482Z,6.83
2019-06-07T04:43:16.248Z,6.90
2019-06-07T04:45:51.190Z,6.37
2019-06-07T04:48:18.991Z,6.73
2019-06-07T04:50:49.878Z,6.47
2019-06-07T04:53:19.032Z,7.20
2019-06-07T04:55:48.256Z,6.70
2019-06-07T04:58:17.425Z,7.57
2019-06-07T05:00:52.094Z,6.87
2019-06-07T05:03:17.413Z,7.30
2019-06-07T05:05:46.683Z,6.67
2019-06-07T05:08:27.575Z,7.73
2019-06-07T05:10:46.710Z,6.60
2019-06-07T05:13:15.903Z,6.50
2019-06-07T05:15:45.164Z,6.90
2019-06-07T05:18:14.406Z,7.13
2019-06-07T05:20:44.449Z,7.40
2019-06-07T05:23:59.421Z,7.50
2019-06-07T05:25:45.565Z,8.10
2019-06-07T05:28:14.739Z,8.83
2019-06-07T05:31:03.802Z,8.93
2019-06-07T05:33:14.915Z,8.70
2019-06-07T05:35:44.062Z,8.27
2019-06-07T05:38:13.210Z,8.13
2019-06-07T05:40:48.414Z,7.67
2019-06-07T05:43:26.160Z,9.30
2019-06-07T05:45:56.404Z,7.17
2019-06-07T05:48:26.850Z,6.90
2019-06-07T05:50:58.471Z,7.27
2019-06-07T05:53:27.684Z,7.00
2019-06-07T05:55:56.919Z,6.70
2019-06-07T05:58:26.182Z,7.00
2019-06-07T06:00:55.407Z,6.83
2019-06-07T06:03:24.542Z,6.93
2019-06-07T06:05:55.362Z,6.87
2019-06-07T06:08:24.951Z,7.43
2019-06-07T06:10:54.066Z,6.73
2019-06-07T06:13:23.219Z,6.97
2019-06-07T06:16:01.114Z,8.07
2019-06-07T06:18:23.258Z,7.30
2019-06-07T06:21:15.177Z,7.20
2019-06-07T06:23:23.578Z,7.20
2019-06-07T06:25:57.103Z,7.20
2019-06-07T06:28:24.862Z,7.53
2019-06-07T06:30:56.331Z,7.43
2019-06-07T06:33:35.052Z,7.03
2019-06-07T06:36:04.423Z,7.60
2019-06-07T06:38:38.121Z,7.37
2019-06-07T06:41:15.672Z,7.00
2019-06-07T06:43:42.271Z,6.80
2019-06-07T06:46:37.461Z,7.23
2019-06-07T06:48:54.972Z,6.87
2019-06-07T06:51:26.987Z,7.33
2019-06-07T06:53:56.372Z,8.10
2019-06-07T06:56:25.859Z,7.97
2019-06-07T07:01:28.559Z,8.43
2019-06-07T07:04:11.070Z,7.57
2019-06-07T07:06:31.475Z,6.30
2019-06-07T07:09:02.028Z,6.53
2019-06-07T07:11:32.583Z,6.43
2019-06-07T07:14:01.782Z,6.00
2019-06-07T07:16:30.988Z,6.23
2019-06-07T07:19:00.190Z,6.63
2019-06-07T07:21:29.464Z,5.70
2019-06-07T07:24:20.182Z,5.97
2019-06-07T07:26:32.833Z,6.73
2019-06-07T07:29:02.031Z,5.77
2019-06-07T07:31:31.280Z,5.60
2019-06-07T07:36:39.787Z,5.10
2019-06-07T07:39:08.408Z,5.93
2019-06-07T07:41:38.144Z,5.10
2019-06-07T07:44:07.977Z,5.20
2019-06-07T07:46:42.123Z,5.43
2019-06-07T07:49:16.072Z,5.10
2019-06-07T07:51:55.043Z,4.87
2019-06-07T07:54:22.053Z,3.97
2019-06-07T07:57:02.155Z,4.80
2019-06-07T07:59:42.114Z,4.87
2019-06-07T08:02:04.378Z,4.63
2019-06-07T08:05:12.723Z,4.10
2019-06-07T08:07:05.907Z,4.10
2019-06-07T08:09:35.098Z,4.20
2019-06-07T08:12:06.819Z,4.43
2019-06-07T08:14:37.475Z,4.50
2019-06-07T08:17:09.858Z,3.80
2019-06-07T15:40:33.250Z,3.40
2019-06-07T15:43:02.413Z,3.80
2019-06-07T15:45:31.626Z,3.60
2019-06-07T15:48:00.838Z,3.83
2019-06-07T15:50:32.176Z,3.60
2019-06-07T15:53:02.134Z,3.50
2019-06-07T15:55:37.062Z,3.37
2019-06-07T15:58:04.683Z,3.80
2019-06-07T16:00:35.336Z,3.87
2019-06-07T16:03:04.701Z,3.50
2019-06-07T16:05:38.261Z,4.13
2019-06-07T16:08:07.590Z,3.70
2019-06-07T16:10:40.937Z,3.83
2019-06-07T16:13:10.249Z,3.73
2019-06-07T16:15:41.360Z,3.93
2019-06-07T16:18:11.926Z,3.70
2019-06-07T16:20:43.781Z,5.20
2019-06-07T16:23:20.087Z,4.70
2019-06-07T16:25:49.494Z,4.30
2019-06-07T16:28:20.341Z,3.73
2019-06-07T16:31:01.764Z,4.47
2019-06-07T16:33:36.697Z,3.67
2019-06-07T16:36:26.253Z,3.93
2019-06-07T16:39:09.890Z,4.40
2019-06-07T16:41:45.034Z,4.17
2019-06-07T16:44:14.282Z,3.70
2019-06-07T16:46:45.031Z,4.00
2019-06-07T16:49:14.476Z,3.73
2019-06-07T16:51:54.881Z,4.33
2019-06-07T16:54:24.752Z,3.97
2019-06-07T16:57:01.734Z,3.80
2019-06-07T16:59:33.627Z,3.60
2019-06-07T17:02:02.825Z,3.70
2019-06-07T17:04:37.383Z,3.60
2019-06-07T17:07:14.692Z,3.70
2019-06-07T17:09:53.987Z,4.57
2019-06-07T17:12:23.657Z,3.33
2019-06-07T17:14:52.823Z,3.60
2019-06-07T17:17:22.165Z,3.77
2019-06-07T17:19:51.334Z,4.23
2019-06-07T17:22:20.527Z,3.77
2019-06-07T17:24:49.950Z,3.73
2019-06-07T17:27:19.732Z,4.13
2019-06-07T17:29:50.097Z,4.10
2019-06-07T17:32:19.542Z,3.90
2019-06-07T17:34:48.676Z,4.13
2019-06-07T17:37:18.383Z,4.10
2019-06-07T17:39:48.775Z,4.47
2019-06-07T17:42:18.964Z,4.47
2019-06-07T17:44:49.330Z,4.30
2019-06-07T17:47:18.680Z,3.73
2019-06-07T17:49:50.055Z,4.20
2019-06-07T17:52:20.987Z,4.00
2019-06-07T17:54:53.919Z,3.87
2019-06-07T18:00:38.863Z,4.40
2019-06-07T18:03:22.584Z,4.40
2019-06-07T18:05:56.135Z,4.00
2019-06-07T18:08:37.087Z,4.47
2019-06-07T18:11:10.418Z,4.27
2019-06-07T18:13:52.241Z,4.50
2019-06-07T18:16:20.177Z,4.43
2019-06-07T18:18:54.655Z,4.23
2019-06-07T18:21:28.101Z,4.40
2019-06-07T18:24:03.820Z,4.40
2019-06-07T18:26:33.092Z,5.20
2019-06-07T18:29:04.450Z,4.60
2019-06-07T18:31:33.692Z,4.70
2019-06-07T18:34:03.255Z,4.80
2019-06-07T18:36:32.793Z,4.07
2019-06-07T18:39:02.811Z,4.87
2019-06-07T18:41:32.254Z,4.43
2019-06-07T18:44:01.951Z,4.50
2019-06-07T18:46:31.130Z,4.60
2019-06-07T18:49:05.822Z,4.33
2019-06-07T18:51:35.424Z,4.60
2019-06-07T18:54:04.860Z,4.57
2019-06-07T18:56:34.523Z,4.27
2019-06-07T18:59:05.142Z,4.93
2019-06-07T19:01:34.683Z,4.83
2019-06-07T19:04:04.385Z,4.73
2019-06-07T19:06:34.435Z,5.00
2019-06-07T19:09:05.648Z,5.00
2019-06-07T19:11:35.718Z,5.60
2019-06-07T19:14:05.152Z,5.50
2019-06-07T19:16:35.408Z,5.60
2019-06-07T19:19:05.228Z,6.93
2019-06-07T19:21:38.021Z,6.47
2019-06-07T19:24:11.027Z,6.00
2019-06-07T19:26:40.162Z,5.83
2019-06-07T19:29:09.282Z,5.13
2019-06-07T19:31:38.506Z,5.77
2019-06-07T19:34:10.567Z,6.27
2019-06-07T19:36:48.420Z,6.07
2019-06-07T19:39:10.567Z,5.33
2019-06-07T19:41:39.755Z,5.23
2019-06-07T19:44:12.389Z,5.83
2019-06-07T19:46:41.587Z,5.83
2019-06-07T19:49:13.026Z,5.60
2019-06-07T19:51:48.804Z,5.73
2019-06-07T19:54:23.699Z,5.80
2019-06-07T19:56:55.408Z,5.17
2019-06-07T19:59:35.266Z,6.87
2019-06-07T20:02:15.068Z,5.77
2019-06-07T20:04:46.047Z,5.37
2019-06-07T20:07:21.947Z,5.83
2019-06-07T20:09:51.084Z,6.10
2019-06-07T20:12:22.419Z,5.83
2019-06-07T20:15:24.129Z,6.30
2019-06-07T20:17:34.911Z,6.40
2019-06-07T20:20:08.940Z,5.80
2019-06-07T20:22:38.731Z,5.47
2019-06-07T20:25:09.938Z,5.10
2019-06-07T20:27:39.046Z,5.17
2019-06-07T20:30:08.686Z,4.67
2019-06-07T20:32:37.863Z,5.60
2019-06-07T20:35:08.418Z,5.33
2019-06-07T20:37:37.756Z,4.90
2019-06-07T20:40:22.839Z,4.83
2019-06-07T20:42:39.691Z,4.60
2019-06-07T20:45:08.941Z,4.80
2019-06-07T20:47:38.102Z,4.67
2019-06-07T20:50:08.649Z,4.90
2019-06-07T20:52:38.871Z,4.83
2019-06-07T20:55:09.377Z,4.20
2019-06-07T20:57:39.031Z,4.00
2019-06-07T21:00:16.570Z,4.00
2019-06-07T21:02:53.816Z,4.10
2019-06-07T21:05:27.127Z,5.07
2019-06-07T21:07:56.894Z,5.90
2019-06-07T21:10:27.094Z,5.83
2019-06-07T21:13:01.969Z,3.90
2019-06-07T21:15:31.351Z,3.63
2019-06-07T21:18:03.840Z,4.30
2019-06-07T21:20:41.672Z,4.27
2019-06-07T21:23:20.001Z,3.40
2019-06-07T21:25:49.718Z,3.77
2019-06-07T21:28:18.932Z,3.07
2019-06-07T21:30:48.068Z,3.00
2019-06-07T21:33:17.287Z,3.17
2019-06-07T21:35:46.375Z,3.50
2019-06-07T21:38:15.497Z,3.00
2019-06-07T21:40:44.771Z,2.97
2019-06-07T21:43:13.955Z,2.43
2019-06-07T21:45:43.215Z,3.30
2019-06-07T21:48:14.239Z,2.03
2019-06-07T21:50:43.164Z,2.23
2019-06-07T21:53:12.965Z,2.40
2019-06-07T21:55:42.234Z,2.63
2019-06-07T21:58:11.340Z,2.30
2019-06-07T22:01:14.180Z,2.00
2019-06-07T22:03:43.314Z,2.13
2019-06-07T22:06:13.665Z,2.13
2019-06-07T22:08:43.107Z,2.10
2019-06-07T22:11:12.384Z,3.07
2019-06-07T22:13:41.586Z,3.93
2019-06-07T22:16:23.325Z,2.27
2019-06-07T22:18:41.527Z,2.30
2019-06-07T22:21:12.727Z,2.10
2019-06-07T22:23:43.756Z,1.90
2019-06-07T22:26:13.236Z,1.87
2019-06-07T22:28:42.502Z,2.40
2019-06-07T22:31:12.825Z,1.83
2019-06-07T22:33:42.821Z,1.50
2019-06-07T22:36:13.136Z,1.53
2019-06-07T22:38:42.519Z,1.57
2019-06-07T22:41:12.320Z,1.80
2019-06-07T22:43:42.539Z,1.73
2019-06-07T22:46:12.688Z,1.50
2019-06-07T22:48:42.138Z,1.30
2019-06-07T22:51:12.840Z,1.77
2019-06-07T22:53:42.607Z,1.50
2019-06-07T22:56:38.209Z,1.83
2019-06-07T22:59:08.056Z,1.90
2019-06-07T23:01:38.218Z,2.03
2019-06-07T23:04:08.381Z,1.90
2019-06-07T23:06:37.696Z,1.50
2019-06-07T23:09:08.797Z,1.60
2019-06-07T23:11:38.007Z,1.80
2019-06-07T23:14:07.258Z,1.60
2019-06-07T23:16:51.608Z,1.40
2019-06-07T23:19:07.207Z,1.53
2019-06-07T23:21:36.326Z,1.33
2019-06-07T23:24:05.413Z,1.30
2019-06-07T23:26:34.514Z,1.93
2019-06-07T23:29:03.611Z,1.37
2019-06-07T23:31:32.756Z,1.83
2019-06-07T23:34:02.090Z,1.47
2019-06-07T23:36:31.424Z,1.83
2019-06-07T23:39:00.585Z,1.37
2019-06-07T23:41:29.689Z,1.70
2019-06-07T23:43:58.777Z,1.70
2019-06-07T23:46:28.089Z,1.47
2019-06-07T23:48:57.096Z,1.80
2019-06-07T23:51:26.283Z,1.87
2019-06-07T23:53:55.369Z,1.30
2019-06-07T23:56:24.451Z,1.60
2019-06-07T23:58:53.547Z,1.40
